»·PEaware :: N245LG KSAN-KCRQ

N245LG :: KSAN-KCRQ

FLIGHT INFORMATION

Flight Status: Arrived
Operator: Privately registered:
United States
More flights under this callsign
Pilot: Erik A. (17503)
Aircraft: CESSNA 172 SKYHAWK
(C172)
More flights by this aircraft type
Origin: KSAN San Diego Intl-Lindbergh
United States
Destination: KCRQ McClellan-Palomar
United States
More flights between these airports :: More routes between these airports
Route: +OCN
File this flight plan on PilotEdge
Remarks:
Altitude:
(Current/Filed)
3,000ft
Speed:
(Current/Filed)
110kts
Departed: 28-Sep-18 05:52 AM
Arrived: 28-Sep-18 06:19 AM
Distance/Time
Traveled:
24nm/0:27
Distance/Time
To Go:
Arrived

Flight Plot

Page will automatically refresh every two minutes.


Map Options




Map Legend


Flown Route
Filed Route
Departure Airport
Arrival Airport
Navaid (VOR, NDB)
Fix

Horizontal Profiles

Position Reports

Time Latitude Longitude Heading Altitude Ground
Speed
28-Sep-18 05:05 32.732432 -117.193004 196 18ft 0kts
28-Sep-18 05:06 32.732432 -117.193004 196 18ft 0kts
28-Sep-18 05:07 32.732432 -117.193004 196 18ft 0kts
28-Sep-18 05:08 32.732432 -117.193004 196 18ft 0kts
28-Sep-18 05:09 32.732432 -117.193004 196 18ft 0kts
28-Sep-18 05:10 32.732432 -117.193004 196 18ft 0kts
28-Sep-18 05:11 32.732432 -117.193004 196 18ft 0kts
28-Sep-18 05:12 32.732429 -117.193005 196 18ft 0kts
28-Sep-18 05:13 32.732426 -117.193006 196 18ft 0kts
28-Sep-18 05:14 32.732423 -117.193007 196 18ft 0kts
28-Sep-18 05:15 32.732420 -117.193008 196 18ft 0kts
28-Sep-18 05:16 32.732418 -117.193009 196 18ft 0kts
28-Sep-18 05:17 32.732415 -117.193010 196 18ft 0kts
28-Sep-18 05:18 32.732413 -117.193011 196 18ft 0kts
28-Sep-18 05:19 32.732410 -117.193012 196 18ft 0kts
28-Sep-18 05:20 32.732407 -117.193013 196 18ft 0kts
28-Sep-18 05:21 32.732405 -117.193014 196 18ft 0kts
28-Sep-18 05:22 32.732402 -117.193015 196 18ft 0kts
28-Sep-18 05:23 32.732399 -117.193016 196 18ft 0kts
28-Sep-18 05:24 32.732397 -117.193016 196 18ft 0kts
28-Sep-18 05:25 32.732394 -117.193017 196 18ft 0kts
28-Sep-18 05:26 32.732391 -117.193018 196 18ft 0kts
28-Sep-18 05:27 32.732389 -117.193019 196 18ft 0kts
28-Sep-18 05:28 32.732386 -117.193020 196 18ft 0kts
28-Sep-18 05:29 32.732384 -117.193021 196 18ft 0kts
28-Sep-18 05:30 32.732381 -117.193022 196 18ft 0kts
28-Sep-18 05:31 32.732378 -117.193023 196 18ft 0kts
28-Sep-18 05:32 32.732376 -117.193024 196 18ft 0kts
28-Sep-18 05:33 32.732373 -117.193025 196 18ft 0kts
28-Sep-18 05:34 32.732370 -117.193026 196 18ft 0kts
28-Sep-18 05:35 32.732368 -117.193027 196 18ft 0kts
28-Sep-18 05:36 32.732365 -117.193027 196 18ft 0kts
28-Sep-18 05:37 32.732362 -117.193028 196 18ft 0kts
28-Sep-18 05:38 32.732360 -117.193029 196 18ft 0kts
28-Sep-18 05:39 32.732357 -117.193030 196 18ft 0kts
28-Sep-18 05:40 32.732354 -117.193031 196 18ft 0kts
28-Sep-18 05:41 32.732352 -117.193032 196 18ft 0kts
28-Sep-18 05:42 32.732349 -117.193033 196 18ft 0kts
28-Sep-18 05:43 32.732347 -117.193034 196 18ft 0kts
28-Sep-18 05:44 32.732344 -117.193035 196 18ft 0kts
28-Sep-18 05:45 32.732341 -117.193036 196 18ft 0kts
28-Sep-18 05:46 32.732309 -117.193047 195 18ft 0kts
28-Sep-18 05:47 32.732306 -117.193047 195 18ft 0kts
28-Sep-18 05:48 32.732965 -117.191496 106 18ft 13kts
28-Sep-18 05:49 32.731386 -117.184932 106 18ft 23kts
28-Sep-18 05:50 32.729384 -117.178360 137 18ft 6kts
28-Sep-18 05:51 32.729353 -117.178326 135 18ft 0kts
28-Sep-18 05:52 32.729348 -117.178320 135 18ft 0kts
28-Sep-18 05:53 32.729439 -117.177199 69 18ft 0kts
28-Sep-18 05:54 32.731292 -117.180454 285 28ft 67kts
28-Sep-18 05:55 32.740739 -117.203132 319 762ft 88kts
28-Sep-18 05:56 32.760372 -117.221129 317 1574ft 88kts
28-Sep-18 05:57 32.780610 -117.242552 320 1943ft 114kts
28-Sep-18 05:58 32.805299 -117.266391 323 1994ft 114kts
28-Sep-18 05:59 32.833028 -117.266544 4 2719ft 92kts
28-Sep-18 06:00 32.860635 -117.261977 8 2998ft 112kts
28-Sep-18 06:01 32.892891 -117.255883 12 2955ft 116kts
28-Sep-18 06:02 32.921346 -117.250613 6 2956ft 116kts
28-Sep-18 06:03 32.947756 -117.247084 6 2961ft 117kts
28-Sep-18 06:04 32.976049 -117.261376 324 3054ft 116kts
28-Sep-18 06:05 33.002704 -117.283072 324 3063ft 116kts
28-Sep-18 06:06 33.030056 -117.275115 57 3116ft 113kts
28-Sep-18 06:07 33.047403 -117.244230 55 3149ft 115kts
28-Sep-18 06:08 33.060766 -117.211183 67 3636ft 93kts
28-Sep-18 06:09 33.072599 -117.181691 64 3997ft 115kts
28-Sep-18 06:10 33.081537 -117.142894 79 4089ft 126kts
28-Sep-18 06:11 33.087969 -117.100176 82 4047ft 128kts
28-Sep-18 06:12 33.097331 -117.059249 46 3983ft 130kts
28-Sep-18 06:13 33.124885 -117.055318 345 3555ft 124kts
28-Sep-18 06:14 33.143953 -117.089302 287 3568ft 94kts
28-Sep-18 06:15 33.151286 -117.119981 275 3032ft 95kts
28-Sep-18 06:16 33.148439 -117.146848 264 2730ft 101kts
28-Sep-18 06:17 33.143171 -117.184485 258 1924ft 96kts
28-Sep-18 06:18 33.139002 -117.209911 261 1510ft 93kts
28-Sep-18 06:19 33.133749 -117.245395 259 834ft 92kts
28-Sep-18 06:20 33.130131 -117.268631 259 376ft 65kts
28-Sep-18 06:21 33.128048 -117.278651 114 303ft 11kts
28-Sep-18 06:22 33.127361 -117.277702 271 303ft 0kts

Navigation Log

Ident Type
Flight plan parsing failed, navigation log unavailable